Terminal Aerodrome Forecast
Issued by NWS Billings, MT

Home | Current Version | Previous Version | Graphics & Text | Print | Product List | Glossary Off
Versions: 1 2 3 4 5 6 7 8 9 10 11 12 13 14 15

000
FTUS45 KBYZ 162004 AAB
TAFMLS
TAF AMD
KMLS 162004Z 1620/1718 03006KT P6SM VCSH SCT020 OVC050
     FM162100 07008KT P6SM VCSH BKN080
     FM170800 10006KT P6SM VCSH SCT020 BKN050
     FM171400 15012KT P6SM VCSH SCT030 BKN050=

USA.gov is the U.S. government's official web portal to all federal, state and local government web resources and services.